sensor_id;sensor_type;location;lat;lon;timestamp;P1;durP1;ratioP1;P2;durP2;ratioP2
12290;SDS011;6208;48.956;9.076;2022-12-10T00:01:15;21.93;;;18.07;;
12290;SDS011;6208;48.956;9.076;2022-12-10T00:04:00;20.47;;;17.37;;
12290;SDS011;6208;48.956;9.076;2022-12-10T00:06:46;19.77;;;16.90;;
12290;SDS011;6208;48.956;9.076;2022-12-10T00:09:31;23.00;;;17.13;;
12290;SDS011;6208;48.956;9.076;2022-12-10T00:12:16;19.60;;;17.00;;
12290;SDS011;6208;48.956;9.076;2022-12-10T00:15:00;21.87;;;17.83;;
12290;SDS011;6208;48.956;9.076;2022-12-10T00:17:44;22.30;;;17.60;;
12290;SDS011;6208;48.956;9.076;2022-12-10T00:20:28;18.63;;;15.40;;
12290;SDS011;6208;48.956;9.076;2022-12-10T00:23:12;23.03;;;17.97;;
12290;SDS011;6208;48.956;9.076;2022-12-10T00:26:01;22.07;;;17.63;;
12290;SDS011;6208;48.956;9.076;2022-12-10T00:28:53;21.90;;;17.53;;
12290;SDS011;6208;48.956;9.076;2022-12-10T00:31:39;21.20;;;16.47;;
12290;SDS011;6208;48.956;9.076;2022-12-10T00:34:23;22.37;;;17.13;;
12290;SDS011;6208;48.956;9.076;2022-12-10T00:37:07;22.53;;;17.37;;
12290;SDS011;6208;48.956;9.076;2022-12-10T00:39:52;24.67;;;17.90;;
12290;SDS011;6208;48.956;9.076;2022-12-10T00:42:36;23.83;;;17.10;;
12290;SDS011;6208;48.956;9.076;2022-12-10T00:45:20;21.57;;;17.37;;
12290;SDS011;6208;48.956;9.076;2022-12-10T00:48:04;21.60;;;17.33;;
12290;SDS011;6208;48.956;9.076;2022-12-10T00:50:55;22.10;;;17.37;;
12290;SDS011;6208;48.956;9.076;2022-12-10T00:53:41;22.50;;;17.27;;
12290;SDS011;6208;48.956;9.076;2022-12-10T00:56:30;22.37;;;18.57;;
12290;SDS011;6208;48.956;9.076;2022-12-10T00:59:16;22.80;;;17.40;;
12290;SDS011;6208;48.956;9.076;2022-12-10T01:02:00;22.17;;;17.90;;
12290;SDS011;6208;48.956;9.076;2022-12-10T01:04:44;20.67;;;16.87;;
12290;SDS011;6208;48.956;9.076;2022-12-10T01:07:28;23.40;;;18.53;;
12290;SDS011;6208;48.956;9.076;2022-12-10T01:10:12;20.80;;;17.50;;
12290;SDS011;6208;48.956;9.076;2022-12-10T01:12:56;22.53;;;17.80;;
12290;SDS011;6208;48.956;9.076;2022-12-10T01:15:40;20.73;;;17.17;;
12290;SDS011;6208;48.956;9.076;2022-12-10T01:18:24;18.33;;;16.37;;
12290;SDS011;6208;48.956;9.076;2022-12-10T01:21:10;23.27;;;16.77;;
12290;SDS011;6208;48.956;9.076;2022-12-10T01:23:57;20.10;;;16.77;;
12290;SDS011;6208;48.956;9.076;2022-12-10T01:26:41;23.03;;;17.23;;
12290;SDS011;6208;48.956;9.076;2022-12-10T01:29:26;21.83;;;17.27;;
12290;SDS011;6208;48.956;9.076;2022-12-10T01:32:11;21.77;;;16.77;;
12290;SDS011;6208;48.956;9.076;2022-12-10T01:34:55;18.70;;;16.43;;
12290;SDS011;6208;48.956;9.076;2022-12-10T01:37:39;20.63;;;17.40;;
12290;SDS011;6208;48.956;9.076;2022-12-10T01:40:23;19.10;;;16.67;;
12290;SDS011;6208;48.956;9.076;2022-12-10T01:43:12;20.57;;;17.27;;
12290;SDS011;6208;48.956;9.076;2022-12-10T01:45:58;21.93;;;17.80;;
12290;SDS011;6208;48.956;9.076;2022-12-10T01:48:43;23.00;;;17.37;;
12290;SDS011;6208;48.956;9.076;2022-12-10T01:51:29;21.33;;;16.53;;
12290;SDS011;6208;48.956;9.076;2022-12-10T01:54:25;20.80;;;16.63;;
12290;SDS011;6208;48.956;9.076;2022-12-10T01:57:18;20.73;;;16.73;;
12290;SDS011;6208;48.956;9.076;2022-12-10T02:00:07;19.43;;;16.03;;
12290;SDS011;6208;48.956;9.076;2022-12-10T02:02:56;22.77;;;17.23;;
12290;SDS011;6208;48.956;9.076;2022-12-10T02:05:52;20.30;;;17.23;;
12290;SDS011;6208;48.956;9.076;2022-12-10T02:08:47;24.27;;;17.33;;
12290;SDS011;6208;48.956;9.076;2022-12-10T02:11:47;19.33;;;16.43;;
12290;SDS011;6208;48.956;9.076;2022-12-10T02:17:47;22.30;;;17.47;;
12290;SDS011;6208;48.956;9.076;2022-12-10T02:20:39;21.27;;;16.87;;
12290;SDS011;6208;48.956;9.076;2022-12-10T02:23:28;21.00;;;17.27;;
12290;SDS011;6208;48.956;9.076;2022-12-10T02:26:23;20.53;;;16.17;;
12290;SDS011;6208;48.956;9.076;2022-12-10T02:29:27;21.97;;;17.73;;
12290;SDS011;6208;48.956;9.076;2022-12-10T02:32:13;22.70;;;17.57;;
12290;SDS011;6208;48.956;9.076;2022-12-10T02:35:00;23.03;;;17.90;;
12290;SDS011;6208;48.956;9.076;2022-12-10T02:37:53;22.97;;;17.73;;
12290;SDS011;6208;48.956;9.076;2022-12-10T02:40:42;23.10;;;18.03;;
12290;SDS011;6208;48.956;9.076;2022-12-10T02:43:31;20.87;;;17.57;;
12290;SDS011;6208;48.956;9.076;2022-12-10T02:46:17;21.97;;;17.20;;
12290;SDS011;6208;48.956;9.076;2022-12-10T02:49:02;22.60;;;17.00;;
12290;SDS011;6208;48.956;9.076;2022-12-10T02:51:49;21.90;;;17.97;;
12290;SDS011;6208;48.956;9.076;2022-12-10T02:54:35;21.43;;;17.17;;
12290;SDS011;6208;48.956;9.076;2022-12-10T02:57:29;20.10;;;17.03;;
12290;SDS011;6208;48.956;9.076;2022-12-10T03:00:25;20.53;;;17.20;;
12290;SDS011;6208;48.956;9.076;2022-12-10T03:03:22;20.93;;;17.27;;
12290;SDS011;6208;48.956;9.076;2022-12-10T03:06:17;22.30;;;17.10;;
12290;SDS011;6208;48.956;9.076;2022-12-10T03:09:11;19.37;;;16.83;;
12290;SDS011;6208;48.956;9.076;2022-12-10T03:12:02;20.50;;;16.73;;
12290;SDS011;6208;48.956;9.076;2022-12-10T03:14:57;23.53;;;17.37;;
12290;SDS011;6208;48.956;9.076;2022-12-10T03:17:43;23.17;;;17.37;;
12290;SDS011;6208;48.956;9.076;2022-12-10T03:20:31;21.00;;;16.97;;
12290;SDS011;6208;48.956;9.076;2022-12-10T03:23:18;21.77;;;17.33;;
12290;SDS011;6208;48.956;9.076;2022-12-10T03:26:02;21.50;;;17.87;;
12290;SDS011;6208;48.956;9.076;2022-12-10T03:28:52;21.30;;;16.90;;
12290;SDS011;6208;48.956;9.076;2022-12-10T03:31:42;20.97;;;17.70;;
12290;SDS011;6208;48.956;9.076;2022-12-10T03:34:27;20.07;;;17.30;;
12290;SDS011;6208;48.956;9.076;2022-12-10T03:37:12;23.20;;;17.53;;
12290;SDS011;6208;48.956;9.076;2022-12-10T03:39:57;19.73;;;17.20;;
12290;SDS011;6208;48.956;9.076;2022-12-10T03:42:42;25.20;;;18.30;;
12290;SDS011;6208;48.956;9.076;2022-12-10T03:45:27;21.73;;;17.10;;
12290;SDS011;6208;48.956;9.076;2022-12-10T03:48:11;22.70;;;17.20;;
12290;SDS011;6208;48.956;9.076;2022-12-10T03:50:55;23.17;;;17.63;;
12290;SDS011;6208;48.956;9.076;2022-12-10T03:53:39;23.10;;;17.70;;
12290;SDS011;6208;48.956;9.076;2022-12-10T03:56:23;23.30;;;17.57;;
12290;SDS011;6208;48.956;9.076;2022-12-10T03:59:07;21.93;;;17.40;;
12290;SDS011;6208;48.956;9.076;2022-12-10T04:01:51;23.27;;;17.97;;
12290;SDS011;6208;48.956;9.076;2022-12-10T04:04:36;22.80;;;18.03;;
12290;SDS011;6208;48.956;9.076;2022-12-10T04:07:20;22.20;;;17.27;;
12290;SDS011;6208;48.956;9.076;2022-12-10T04:10:05;24.73;;;19.13;;
12290;SDS011;6208;48.956;9.076;2022-12-10T04:12:50;22.47;;;18.23;;
12290;SDS011;6208;48.956;9.076;2022-12-10T04:15:55;23.57;;;18.70;;
12290;SDS011;6208;48.956;9.076;2022-12-10T04:19:03;22.33;;;18.53;;
12290;SDS011;6208;48.956;9.076;2022-12-10T04:21:50;23.40;;;19.13;;
12290;SDS011;6208;48.956;9.076;2022-12-10T04:24:53;22.47;;;17.83;;
12290;SDS011;6208;48.956;9.076;2022-12-10T04:27:56;22.93;;;18.83;;
12290;SDS011;6208;48.956;9.076;2022-12-10T04:30:40;24.70;;;18.53;;
12290;SDS011;6208;48.956;9.076;2022-12-10T04:33:24;25.07;;;19.00;;
12290;SDS011;6208;48.956;9.076;2022-12-10T04:36:09;25.13;;;18.47;;
12290;SDS011;6208;48.956;9.076;2022-12-10T04:38:53;23.27;;;18.20;;
12290;SDS011;6208;48.956;9.076;2022-12-10T04:41:41;22.47;;;18.33;;
12290;SDS011;6208;48.956;9.076;2022-12-10T04:44:25;26.67;;;19.10;;
12290;SDS011;6208;48.956;9.076;2022-12-10T04:47:10;22.33;;;18.53;;
12290;SDS011;6208;48.956;9.076;2022-12-10T04:49:55;23.50;;;18.87;;
12290;SDS011;6208;48.956;9.076;2022-12-10T04:52:39;25.03;;;18.57;;
12290;SDS011;6208;48.956;9.076;2022-12-10T04:55:23;24.63;;;19.10;;
12290;SDS011;6208;48.956;9.076;2022-12-10T04:58:07;22.67;;;18.67;;
12290;SDS011;6208;48.956;9.076;2022-12-10T05:00:52;27.17;;;19.30;;
12290;SDS011;6208;48.956;9.076;2022-12-10T05:03:36;24.00;;;19.47;;
12290;SDS011;6208;48.956;9.076;2022-12-10T05:06:20;24.17;;;19.23;;
12290;SDS011;6208;48.956;9.076;2022-12-10T05:09:04;25.67;;;18.63;;
12290;SDS011;6208;48.956;9.076;2022-12-10T05:11:50;25.03;;;18.80;;
12290;SDS011;6208;48.956;9.076;2022-12-10T05:14:34;25.37;;;18.90;;
12290;SDS011;6208;48.956;9.076;2022-12-10T05:17:18;25.87;;;19.63;;
12290;SDS011;6208;48.956;9.076;2022-12-10T05:20:02;24.27;;;19.63;;
12290;SDS011;6208;48.956;9.076;2022-12-10T05:22:47;24.40;;;18.60;;
12290;SDS011;6208;48.956;9.076;2022-12-10T05:25:56;23.67;;;17.83;;
12290;SDS011;6208;48.956;9.076;2022-12-10T05:28:47;23.37;;;18.37;;
12290;SDS011;6208;48.956;9.076;2022-12-10T05:31:33;23.37;;;19.53;;
12290;SDS011;6208;48.956;9.076;2022-12-10T05:34:17;22.13;;;18.13;;
12290;SDS011;6208;48.956;9.076;2022-12-10T05:37:01;24.93;;;19.43;;
12290;SDS011;6208;48.956;9.076;2022-12-10T05:39:47;22.43;;;18.50;;
12290;SDS011;6208;48.956;9.076;2022-12-10T05:42:31;23.97;;;18.87;;
12290;SDS011;6208;48.956;9.076;2022-12-10T05:45:15;24.13;;;18.17;;
12290;SDS011;6208;48.956;9.076;2022-12-10T05:47:59;21.57;;;17.30;;
12290;SDS011;6208;48.956;9.076;2022-12-10T05:50:45;22.80;;;18.40;;
12290;SDS011;6208;48.956;9.076;2022-12-10T05:53:29;22.03;;;18.13;;
12290;SDS011;6208;48.956;9.076;2022-12-10T05:56:14;22.50;;;18.17;;
12290;SDS011;6208;48.956;9.076;2022-12-10T05:59:02;23.53;;;18.20;;
12290;SDS011;6208;48.956;9.076;2022-12-10T06:01:46;23.27;;;18.70;;
12290;SDS011;6208;48.956;9.076;2022-12-10T06:04:30;24.23;;;18.73;;
12290;SDS011;6208;48.956;9.076;2022-12-10T06:07:14;40.53;;;25.07;;
12290;SDS011;6208;48.956;9.076;2022-12-10T06:09:58;31.03;;;22.47;;
12290;SDS011;6208;48.956;9.076;2022-12-10T06:12:42;31.50;;;20.40;;
12290;SDS011;6208;48.956;9.076;2022-12-10T06:15:26;26.00;;;20.23;;
12290;SDS011;6208;48.956;9.076;2022-12-10T06:18:11;32.83;;;21.63;;
12290;SDS011;6208;48.956;9.076;2022-12-10T06:20:56;25.17;;;19.10;;
12290;SDS011;6208;48.956;9.076;2022-12-10T06:23:40;24.97;;;19.10;;
12290;SDS011;6208;48.956;9.076;2022-12-10T06:26:25;25.67;;;19.90;;
12290;SDS011;6208;48.956;9.076;2022-12-10T06:29:09;23.63;;;18.67;;
12290;SDS011;6208;48.956;9.076;2022-12-10T06:31:53;24.37;;;18.87;;
12290;SDS011;6208;48.956;9.076;2022-12-10T06:34:37;25.93;;;19.63;;
12290;SDS011;6208;48.956;9.076;2022-12-10T06:37:21;25.53;;;18.97;;
12290;SDS011;6208;48.956;9.076;2022-12-10T06:40:06;23.57;;;17.83;;
12290;SDS011;6208;48.956;9.076;2022-12-10T06:42:51;23.83;;;17.93;;
12290;SDS011;6208;48.956;9.076;2022-12-10T06:45:39;22.73;;;18.67;;
12290;SDS011;6208;48.956;9.076;2022-12-10T06:48:24;22.17;;;17.50;;
12290;SDS011;6208;48.956;9.076;2022-12-10T06:51:08;22.90;;;18.50;;
12290;SDS011;6208;48.956;9.076;2022-12-10T06:53:55;26.20;;;18.60;;
12290;SDS011;6208;48.956;9.076;2022-12-10T06:56:39;21.10;;;17.87;;
12290;SDS011;6208;48.956;9.076;2022-12-10T06:59:23;22.37;;;18.00;;
12290;SDS011;6208;48.956;9.076;2022-12-10T07:02:08;20.77;;;16.57;;
12290;SDS011;6208;48.956;9.076;2022-12-10T07:04:53;22.17;;;17.47;;
12290;SDS011;6208;48.956;9.076;2022-12-10T07:07:39;23.07;;;18.33;;
12290;SDS011;6208;48.956;9.076;2022-12-10T07:10:23;23.73;;;18.80;;
12290;SDS011;6208;48.956;9.076;2022-12-10T07:13:07;21.23;;;18.17;;
12290;SDS011;6208;48.956;9.076;2022-12-10T07:15:52;20.30;;;16.60;;
12290;SDS011;6208;48.956;9.076;2022-12-10T07:18:35;19.40;;;16.97;;
12290;SDS011;6208;48.956;9.076;2022-12-10T07:21:23;22.33;;;17.40;;
12290;SDS011;6208;48.956;9.076;2022-12-10T07:24:14;23.93;;;18.53;;
12290;SDS011;6208;48.956;9.076;2022-12-10T07:27:00;24.87;;;19.10;;
12290;SDS011;6208;48.956;9.076;2022-12-10T07:29:49;23.67;;;19.53;;
12290;SDS011;6208;48.956;9.076;2022-12-10T07:32:33;24.03;;;19.27;;
12290;SDS011;6208;48.956;9.076;2022-12-10T07:35:17;24.07;;;19.73;;
12290;SDS011;6208;48.956;9.076;2022-12-10T07:38:01;23.20;;;18.00;;
12290;SDS011;6208;48.956;9.076;2022-12-10T07:40:46;25.10;;;19.67;;
12290;SDS011;6208;48.956;9.076;2022-12-10T07:43:30;28.53;;;20.50;;
12290;SDS011;6208;48.956;9.076;2022-12-10T07:46:19;21.13;;;17.70;;
12290;SDS011;6208;48.956;9.076;2022-12-10T07:49:08;25.67;;;19.53;;
12290;SDS011;6208;48.956;9.076;2022-12-10T07:51:52;22.27;;;17.57;;
12290;SDS011;6208;48.956;9.076;2022-12-10T07:54:36;22.23;;;17.70;;
12290;SDS011;6208;48.956;9.076;2022-12-10T07:57:20;23.10;;;18.60;;
12290;SDS011;6208;48.956;9.076;2022-12-10T08:00:04;23.53;;;18.90;;
12290;SDS011;6208;48.956;9.076;2022-12-10T08:02:48;24.07;;;19.27;;
12290;SDS011;6208;48.956;9.076;2022-12-10T08:05:33;25.80;;;19.33;;
12290;SDS011;6208;48.956;9.076;2022-12-10T08:08:17;22.57;;;19.10;;
12290;SDS011;6208;48.956;9.076;2022-12-10T08:11:01;23.57;;;19.03;;
12290;SDS011;6208;48.956;9.076;2022-12-10T08:13:46;28.07;;;19.93;;
12290;SDS011;6208;48.956;9.076;2022-12-10T08:16:31;23.43;;;18.57;;
12290;SDS011;6208;48.956;9.076;2022-12-10T08:19:15;25.37;;;19.40;;
12290;SDS011;6208;48.956;9.076;2022-12-10T08:21:59;23.40;;;18.70;;
12290;SDS011;6208;48.956;9.076;2022-12-10T08:24:43;25.90;;;19.27;;
12290;SDS011;6208;48.956;9.076;2022-12-10T08:27:27;24.53;;;18.60;;
12290;SDS011;6208;48.956;9.076;2022-12-10T08:30:11;23.67;;;18.67;;
12290;SDS011;6208;48.956;9.076;2022-12-10T08:32:56;26.43;;;19.50;;
12290;SDS011;6208;48.956;9.076;2022-12-10T08:35:40;20.70;;;17.77;;
12290;SDS011;6208;48.956;9.076;2022-12-10T08:38:25;21.37;;;17.20;;
12290;SDS011;6208;48.956;9.076;2022-12-10T08:41:20;20.67;;;17.23;;
12290;SDS011;6208;48.956;9.076;2022-12-10T08:44:04;21.30;;;17.27;;
12290;SDS011;6208;48.956;9.076;2022-12-10T08:46:49;20.30;;;17.13;;
12290;SDS011;6208;48.956;9.076;2022-12-10T08:49:33;21.67;;;16.27;;
12290;SDS011;6208;48.956;9.076;2022-12-10T08:52:17;18.40;;;15.67;;
12290;SDS011;6208;48.956;9.076;2022-12-10T08:55:01;22.03;;;17.10;;
12290;SDS011;6208;48.956;9.076;2022-12-10T08:57:46;18.87;;;15.87;;
12290;SDS011;6208;48.956;9.076;2022-12-10T09:00:30;20.60;;;16.60;;
12290;SDS011;6208;48.956;9.076;2022-12-10T09:03:14;18.97;;;15.90;;
12290;SDS011;6208;48.956;9.076;2022-12-10T09:06:06;17.80;;;15.00;;
12290;SDS011;6208;48.956;9.076;2022-12-10T09:08:53;19.57;;;15.57;;
12290;SDS011;6208;48.956;9.076;2022-12-10T09:11:37;17.30;;;14.97;;
12290;SDS011;6208;48.956;9.076;2022-12-10T09:14:21;19.47;;;15.30;;
12290;SDS011;6208;48.956;9.076;2022-12-10T09:17:07;17.53;;;15.63;;
12290;SDS011;6208;48.956;9.076;2022-12-10T09:19:51;19.50;;;16.30;;
12290;SDS011;6208;48.956;9.076;2022-12-10T09:22:36;17.90;;;15.83;;
12290;SDS011;6208;48.956;9.076;2022-12-10T09:25:20;17.67;;;14.90;;
12290;SDS011;6208;48.956;9.076;2022-12-10T09:28:04;19.73;;;15.83;;
12290;SDS011;6208;48.956;9.076;2022-12-10T09:30:56;21.87;;;15.67;;
12290;SDS011;6208;48.956;9.076;2022-12-10T09:33:41;20.43;;;16.37;;
12290;SDS011;6208;48.956;9.076;2022-12-10T09:36:26;20.63;;;16.73;;
12290;SDS011;6208;48.956;9.076;2022-12-10T09:39:10;21.00;;;15.40;;
12290;SDS011;6208;48.956;9.076;2022-12-10T09:42:03;19.40;;;15.63;;
12290;SDS011;6208;48.956;9.076;2022-12-10T09:45:12;19.60;;;15.67;;
12290;SDS011;6208;48.956;9.076;2022-12-10T09:54:02;20.00;;;15.67;;
12290;SDS011;6208;48.956;9.076;2022-12-10T09:57:10;19.27;;;16.00;;
12290;SDS011;6208;48.956;9.076;2022-12-10T10:00:21;19.27;;;15.43;;
12290;SDS011;6208;48.956;9.076;2022-12-10T10:03:18;19.70;;;15.47;;
12290;SDS011;6208;48.956;9.076;2022-12-10T10:06:02;19.47;;;16.00;;
12290;SDS011;6208;48.956;9.076;2022-12-10T10:08:51;17.43;;;14.83;;
12290;SDS011;6208;48.956;9.076;2022-12-10T10:11:37;16.33;;;14.60;;
12290;SDS011;6208;48.956;9.076;2022-12-10T10:14:24;18.40;;;15.00;;
12290;SDS011;6208;48.956;9.076;2022-12-10T10:17:19;16.80;;;14.40;;
12290;SDS011;6208;48.956;9.076;2022-12-10T10:20:10;18.93;;;15.00;;
12290;SDS011;6208;48.956;9.076;2022-12-10T10:22:56;19.00;;;15.90;;
12290;SDS011;6208;48.956;9.076;2022-12-10T10:25:42;16.70;;;14.27;;
12290;SDS011;6208;48.956;9.076;2022-12-10T10:28:28;17.17;;;14.67;;
12290;SDS011;6208;48.956;9.076;2022-12-10T10:31:18;17.63;;;14.77;;
12290;SDS011;6208;48.956;9.076;2022-12-10T10:34:06;18.73;;;15.37;;
12290;SDS011;6208;48.956;9.076;2022-12-10T10:37:27;18.43;;;14.80;;
12290;SDS011;6208;48.956;9.076;2022-12-10T10:43:24;18.60;;;15.37;;
12290;SDS011;6208;48.956;9.076;2022-12-10T10:46:13;18.50;;;15.30;;
12290;SDS011;6208;48.956;9.076;2022-12-10T10:49:15;17.10;;;13.73;;
12290;SDS011;6208;48.956;9.076;2022-12-10T10:52:05;17.93;;;14.30;;
12290;SDS011;6208;48.956;9.076;2022-12-10T10:55:00;19.40;;;15.23;;
12290;SDS011;6208;48.956;9.076;2022-12-10T10:57:44;17.30;;;14.50;;
12290;SDS011;6208;48.956;9.076;2022-12-10T11:00:28;16.90;;;14.57;;
12290;SDS011;6208;48.956;9.076;2022-12-10T11:03:12;16.40;;;14.30;;
12290;SDS011;6208;48.956;9.076;2022-12-10T11:05:56;20.37;;;16.63;;
12290;SDS011;6208;48.956;9.076;2022-12-10T11:08:42;18.10;;;16.10;;
12290;SDS011;6208;48.956;9.076;2022-12-10T11:11:33;16.80;;;14.43;;
12290;SDS011;6208;48.956;9.076;2022-12-10T11:14:23;16.70;;;14.27;;
12290;SDS011;6208;48.956;9.076;2022-12-10T11:17:27;14.77;;;13.20;;
12290;SDS011;6208;48.956;9.076;2022-12-10T11:20:16;17.10;;;14.27;;
12290;SDS011;6208;48.956;9.076;2022-12-10T11:23:08;17.83;;;14.20;;
12290;SDS011;6208;48.956;9.076;2022-12-10T11:35:36;16.10;;;12.27;;
12290;SDS011;6208;48.956;9.076;2022-12-10T11:38:47;16.53;;;13.77;;
12290;SDS011;6208;48.956;9.076;2022-12-10T11:41:49;17.27;;;13.23;;
12290;SDS011;6208;48.956;9.076;2022-12-10T11:50:44;13.50;;;11.77;;
12290;SDS011;6208;48.956;9.076;2022-12-10T11:59:22;15.10;;;13.07;;
12290;SDS011;6208;48.956;9.076;2022-12-10T12:02:36;14.07;;;12.57;;
12290;SDS011;6208;48.956;9.076;2022-12-10T12:05:52;14.20;;;12.10;;
12290;SDS011;6208;48.956;9.076;2022-12-10T12:11:49;14.97;;;13.23;;
12290;SDS011;6208;48.956;9.076;2022-12-10T12:17:44;15.37;;;13.40;;
12290;SDS011;6208;48.956;9.076;2022-12-10T12:20:43;13.73;;;12.03;;
12290;SDS011;6208;48.956;9.076;2022-12-10T12:27:00;14.50;;;11.87;;
12290;SDS011;6208;48.956;9.076;2022-12-10T12:35:50;12.73;;;11.27;;
12290;SDS011;6208;48.956;9.076;2022-12-10T12:38:53;13.47;;;12.07;;
12290;SDS011;6208;48.956;9.076;2022-12-10T12:41:59;13.90;;;12.33;;
12290;SDS011;6208;48.956;9.076;2022-12-10T12:44:49;14.03;;;11.93;;
12290;SDS011;6208;48.956;9.076;2022-12-10T12:51:04;15.00;;;11.97;;
12290;SDS011;6208;48.956;9.076;2022-12-10T12:53:53;15.33;;;13.43;;
12290;SDS011;6208;48.956;9.076;2022-12-10T13:05:55;15.67;;;13.30;;
12290;SDS011;6208;48.956;9.076;2022-12-10T13:08:41;15.53;;;12.53;;
12290;SDS011;6208;48.956;9.076;2022-12-10T13:11:32;14.20;;;12.00;;
12290;SDS011;6208;48.956;9.076;2022-12-10T13:14:28;16.80;;;13.70;;
12290;SDS011;6208;48.956;9.076;2022-12-10T13:17:34;15.13;;;13.13;;
12290;SDS011;6208;48.956;9.076;2022-12-10T13:26:35;16.40;;;13.43;;
12290;SDS011;6208;48.956;9.076;2022-12-10T13:29:26;15.37;;;13.60;;
12290;SDS011;6208;48.956;9.076;2022-12-10T13:32:15;16.77;;;14.53;;
12290;SDS011;6208;48.956;9.076;2022-12-10T13:40:41;16.30;;;13.83;;
12290;SDS011;6208;48.956;9.076;2022-12-10T13:43:51;17.50;;;15.20;;
12290;SDS011;6208;48.956;9.076;2022-12-10T13:49:55;18.60;;;14.67;;
12290;SDS011;6208;48.956;9.076;2022-12-10T13:56:13;17.20;;;13.67;;
12290;SDS011;6208;48.956;9.076;2022-12-10T14:01:54;17.87;;;14.00;;
12290;SDS011;6208;48.956;9.076;2022-12-10T14:07:57;14.60;;;13.00;;
12290;SDS011;6208;48.956;9.076;2022-12-10T14:10:44;17.10;;;14.73;;
12290;SDS011;6208;48.956;9.076;2022-12-10T14:13:37;16.60;;;14.70;;
12290;SDS011;6208;48.956;9.076;2022-12-10T14:16:27;22.50;;;16.67;;
12290;SDS011;6208;48.956;9.076;2022-12-10T14:19:14;21.57;;;16.03;;
12290;SDS011;6208;48.956;9.076;2022-12-10T14:22:03;20.57;;;15.23;;
12290;SDS011;6208;48.956;9.076;2022-12-10T14:24:58;20.30;;;15.40;;
12290;SDS011;6208;48.956;9.076;2022-12-10T14:27:46;21.67;;;16.30;;
12290;SDS011;6208;48.956;9.076;2022-12-10T14:30:32;20.63;;;16.17;;
12290;SDS011;6208;48.956;9.076;2022-12-10T14:33:17;20.57;;;16.20;;
12290;SDS011;6208;48.956;9.076;2022-12-10T14:36:04;21.17;;;16.27;;
12290;SDS011;6208;48.956;9.076;2022-12-10T14:38:49;20.03;;;15.23;;
12290;SDS011;6208;48.956;9.076;2022-12-10T14:41:34;18.23;;;15.37;;
12290;SDS011;6208;48.956;9.076;2022-12-10T14:44:18;20.70;;;16.10;;
12290;SDS011;6208;48.956;9.076;2022-12-10T14:47:12;21.27;;;15.43;;
12290;SDS011;6208;48.956;9.076;2022-12-10T14:49:57;22.33;;;15.80;;
12290;SDS011;6208;48.956;9.076;2022-12-10T14:52:48;18.93;;;15.00;;
12290;SDS011;6208;48.956;9.076;2022-12-10T14:55:34;22.27;;;16.47;;
12290;SDS011;6208;48.956;9.076;2022-12-10T14:58:38;27.80;;;18.93;;
12290;SDS011;6208;48.956;9.076;2022-12-10T15:01:30;25.17;;;16.23;;
12290;SDS011;6208;48.956;9.076;2022-12-10T15:04:18;18.53;;;15.27;;
12290;SDS011;6208;48.956;9.076;2022-12-10T15:07:03;22.40;;;17.37;;
12290;SDS011;6208;48.956;9.076;2022-12-10T15:09:48;20.53;;;15.23;;
12290;SDS011;6208;48.956;9.076;2022-12-10T15:12:38;20.67;;;15.87;;
12290;SDS011;6208;48.956;9.076;2022-12-10T15:15:34;17.77;;;15.40;;
12290;SDS011;6208;48.956;9.076;2022-12-10T15:18:21;19.23;;;15.57;;
12290;SDS011;6208;48.956;9.076;2022-12-10T15:21:30;18.37;;;16.03;;
12290;SDS011;6208;48.956;9.076;2022-12-10T15:24:18;18.50;;;14.73;;
12290;SDS011;6208;48.956;9.076;2022-12-10T15:27:15;20.30;;;14.83;;
12290;SDS011;6208;48.956;9.076;2022-12-10T15:30:20;20.77;;;16.20;;
12290;SDS011;6208;48.956;9.076;2022-12-10T15:33:20;19.47;;;15.30;;
12290;SDS011;6208;48.956;9.076;2022-12-10T15:36:15;20.30;;;14.87;;
12290;SDS011;6208;48.956;9.076;2022-12-10T15:39:04;17.33;;;14.23;;
12290;SDS011;6208;48.956;9.076;2022-12-10T15:41:56;17.73;;;14.10;;
12290;SDS011;6208;48.956;9.076;2022-12-10T15:44:45;18.80;;;14.40;;
12290;SDS011;6208;48.956;9.076;2022-12-10T15:47:29;17.50;;;14.77;;
12290;SDS011;6208;48.956;9.076;2022-12-10T15:50:16;17.83;;;15.17;;
12290;SDS011;6208;48.956;9.076;2022-12-10T15:53:01;19.70;;;15.97;;
12290;SDS011;6208;48.956;9.076;2022-12-10T15:55:45;18.30;;;14.97;;
12290;SDS011;6208;48.956;9.076;2022-12-10T15:58:29;18.00;;;15.40;;
12290;SDS011;6208;48.956;9.076;2022-12-10T16:01:13;21.17;;;16.23;;
12290;SDS011;6208;48.956;9.076;2022-12-10T16:03:59;20.33;;;15.57;;
12290;SDS011;6208;48.956;9.076;2022-12-10T16:06:43;20.93;;;15.43;;
12290;SDS011;6208;48.956;9.076;2022-12-10T16:09:27;20.37;;;14.93;;
12290;SDS011;6208;48.956;9.076;2022-12-10T16:12:15;19.97;;;15.57;;
12290;SDS011;6208;48.956;9.076;2022-12-10T16:15:00;18.93;;;15.27;;
12290;SDS011;6208;48.956;9.076;2022-12-10T16:17:45;18.83;;;14.70;;
12290;SDS011;6208;48.956;9.076;2022-12-10T16:20:30;18.67;;;14.83;;
12290;SDS011;6208;48.956;9.076;2022-12-10T16:23:16;17.97;;;14.53;;
12290;SDS011;6208;48.956;9.076;2022-12-10T16:26:01;19.30;;;16.07;;
12290;SDS011;6208;48.956;9.076;2022-12-10T16:28:48;18.67;;;15.07;;
12290;SDS011;6208;48.956;9.076;2022-12-10T16:31:33;20.83;;;14.97;;
12290;SDS011;6208;48.956;9.076;2022-12-10T16:34:18;15.90;;;14.13;;
12290;SDS011;6208;48.956;9.076;2022-12-10T16:37:02;16.50;;;13.37;;
12290;SDS011;6208;48.956;9.076;2022-12-10T16:39:47;17.37;;;13.97;;
12290;SDS011;6208;48.956;9.076;2022-12-10T16:42:31;17.33;;;14.20;;
12290;SDS011;6208;48.956;9.076;2022-12-10T16:45:20;18.23;;;13.97;;
12290;SDS011;6208;48.956;9.076;2022-12-10T16:48:09;16.20;;;14.13;;
12290;SDS011;6208;48.956;9.076;2022-12-10T16:50:54;15.40;;;13.77;;
12290;SDS011;6208;48.956;9.076;2022-12-10T16:53:42;16.33;;;13.27;;
12290;SDS011;6208;48.956;9.076;2022-12-10T16:56:26;18.73;;;14.13;;
12290;SDS011;6208;48.956;9.076;2022-12-10T16:59:11;18.00;;;14.70;;
12290;SDS011;6208;48.956;9.076;2022-12-10T17:01:55;16.97;;;13.80;;
12290;SDS011;6208;48.956;9.076;2022-12-10T17:04:40;17.73;;;14.43;;
12290;SDS011;6208;48.956;9.076;2022-12-10T17:07:24;18.97;;;15.33;;
12290;SDS011;6208;48.956;9.076;2022-12-10T17:10:12;16.33;;;13.43;;
12290;SDS011;6208;48.956;9.076;2022-12-10T17:12:56;16.23;;;13.73;;
12290;SDS011;6208;48.956;9.076;2022-12-10T17:15:41;17.70;;;14.60;;
12290;SDS011;6208;48.956;9.076;2022-12-10T17:18:27;16.50;;;13.90;;
12290;SDS011;6208;48.956;9.076;2022-12-10T17:21:12;17.13;;;14.60;;
12290;SDS011;6208;48.956;9.076;2022-12-10T17:23:56;18.30;;;13.77;;
12290;SDS011;6208;48.956;9.076;2022-12-10T17:26:40;18.90;;;14.57;;
12290;SDS011;6208;48.956;9.076;2022-12-10T17:29:29;16.20;;;13.00;;
12290;SDS011;6208;48.956;9.076;2022-12-10T17:32:21;17.23;;;13.63;;
12290;SDS011;6208;48.956;9.076;2022-12-10T17:35:06;18.83;;;15.20;;
12290;SDS011;6208;48.956;9.076;2022-12-10T17:37:53;16.83;;;14.03;;
12290;SDS011;6208;48.956;9.076;2022-12-10T17:40:38;21.00;;;14.57;;
12290;SDS011;6208;48.956;9.076;2022-12-10T17:43:23;16.00;;;13.70;;
12290;SDS011;6208;48.956;9.076;2022-12-10T17:46:08;15.10;;;13.50;;
12290;SDS011;6208;48.956;9.076;2022-12-10T17:48:54;17.67;;;14.90;;
12290;SDS011;6208;48.956;9.076;2022-12-10T17:51:38;19.10;;;15.27;;
12290;SDS011;6208;48.956;9.076;2022-12-10T17:54:23;17.90;;;14.13;;
12290;SDS011;6208;48.956;9.076;2022-12-10T17:57:11;18.27;;;14.27;;
12290;SDS011;6208;48.956;9.076;2022-12-10T18:00:00;17.20;;;14.20;;
12290;SDS011;6208;48.956;9.076;2022-12-10T18:02:45;17.53;;;14.27;;